Time;durP1;ratioP1;P1;durP2;ratioP2;P2;SDS_P1;SDS_P2;PMS_P1;PMS_P2;Temp;Humidity;BMP_temperature;BMP_pressure;BME280_temperature;BME280_humidity;BME280_pressure;Samples;Min_cycle;Max_cycle;Signal;HPM_P1;HPM_P2
2023/07/24 00:01:11;;;;;;;0.00;0.00;;;17.80;85.80;;;;;;5008359;28;20053;-70
2023/07/24 00:03:36;;;;;;;0.40;0.40;;;17.80;86.00;;;;;;5007193;28;20053;-70
2023/07/24 00:06:02;;;;;;;0.00;0.00;;;17.80;85.60;;;;;;5009292;28;20038;-70
2023/07/24 00:08:28;;;;;;;0.75;0.73;;;17.80;86.00;;;;;;5007926;28;20117;-70
2023/07/24 00:10:53;;;;;;;0.00;0.00;;;17.80;85.80;;;;;;5009203;28;20104;-70
2023/07/24 00:13:19;;;;;;;0.00;0.00;;;17.80;85.80;;;;;;5009052;28;20052;-70
2023/07/24 00:15:44;;;;;;;0.22;0.22;;;17.80;86.30;;;;;;5007414;28;20056;-70
2023/07/24 00:18:10;;;;;;;0.65;0.65;;;17.80;86.20;;;;;;5008593;28;20034;-70
2023/07/24 00:20:35;;;;;;;0.95;0.70;;;17.80;86.20;;;;;;5009288;28;20045;-70
2023/07/24 00:23:01;;;;;;;0.00;0.00;;;17.80;86.10;;;;;;5009295;28;20050;-70
2023/07/24 00:25:26;;;;;;;0.40;0.40;;;17.80;86.40;;;;;;5001388;28;20059;-70
2023/07/24 00:27:52;;;;;;;0.00;0.00;;;17.80;86.50;;;;;;5008738;28;20056;-71
2023/07/24 00:30:17;;;;;;;1.13;0.65;;;17.70;86.50;;;;;;5008817;28;20053;-71
2023/07/24 00:32:43;;;;;;;0.03;0.03;;;17.70;86.40;;;;;;5008575;28;20074;-71
2023/07/24 00:35:09;;;;;;;0.30;0.30;;;17.70;86.40;;;;;;5008900;28;20046;-71
2023/07/24 00:37:34;;;;;;;0.10;0.10;;;17.70;86.80;;;;;;5007681;28;20054;-69
2023/07/24 00:40:00;;;;;;;0.70;0.70;;;17.60;87.10;;;;;;5009018;28;20042;-71
2023/07/24 00:42:25;;;;;;;0.47;0.47;;;17.60;87.10;;;;;;5008197;28;20104;-71
2023/07/24 00:44:51;;;;;;;0.00;0.00;;;17.60;87.30;;;;;;5009172;28;20034;-70
2023/07/24 00:47:17;;;;;;;0.00;0.00;;;17.60;87.50;;;;;;5008671;28;20507;-71
2023/07/24 00:49:44;;;;;;;0.00;0.00;;;17.60;87.20;;;;;;5008113;28;20052;-70
2023/07/24 00:52:11;;;;;;;0.00;0.00;;;17.60;87.20;;;;;;5008835;28;20062;-71
2023/07/24 00:54:37;;;;;;;0.00;0.00;;;17.60;87.10;;;;;;5009268;28;20058;-71
2023/07/24 00:57:04;;;;;;;0.00;0.00;;;17.60;87.00;;;;;;5008109;28;20132;-71
2023/07/24 00:59:30;;;;;;;0.00;0.00;;;17.60;87.80;;;;;;5007164;28;20153;-70
2023/07/24 01:01:56;;;;;;;0.00;0.00;;;17.50;87.80;;;;;;5007748;28;20137;-71
2023/07/24 01:04:22;;;;;;;0.00;0.00;;;17.50;87.80;;;;;;5008385;28;20048;-71
2023/07/24 01:06:47;;;;;;;0.10;0.10;;;17.50;87.20;;;;;;5008627;28;20076;-71
2023/07/24 01:09:13;;;;;;;0.00;0.00;;;17.50;87.70;;;;;;5008548;28;20045;-71
2023/07/24 01:11:50;;;;;;;0.20;0.20;;;17.50;87.70;;;;;;5009443;28;20486;-70
2023/07/24 01:14:27;;;;;;;0.13;0.13;;;17.50;88.00;;;;;;5011528;28;20050;-70
2023/07/24 01:16:55;;;;;;;0.00;0.00;;;17.40;88.60;;;;;;5012213;28;20057;-70
2023/07/24 01:19:48;;;;;;;0.00;0.00;;;17.40;88.80;;;;;;5012248;28;20050;-71
2023/07/24 01:22:29;;;;;;;0.28;0.28;;;17.40;88.80;;;;;;5012271;28;20117;-71
2023/07/24 01:25:15;;;;;;;0.03;0.03;;;17.40;88.80;;;;;;5012318;28;20136;-71
2023/07/24 01:27:43;;;;;;;1.08;0.98;;;17.40;88.80;;;;;;5010916;28;20053;-70
2023/07/24 01:30:09;;;;;;;0.00;0.00;;;17.30;88.70;;;;;;5011902;28;20549;-71
2023/07/24 01:32:35;;;;;;;0.00;0.00;;;17.30;88.90;;;;;;5010890;28;20498;-71
2023/07/24 01:35:00;;;;;;;0.20;0.20;;;17.30;88.80;;;;;;5011480;28;20042;-70
2023/07/24 01:37:27;;;;;;;0.00;0.00;;;17.30;89.00;;;;;;5011338;28;20046;-71
2023/07/24 01:39:53;;;;;;;0.00;0.00;;;17.30;88.90;;;;;;5012065;28;20050;-70
2023/07/24 01:42:19;;;;;;;0.00;0.00;;;17.30;88.90;;;;;;5012438;28;20185;-71
2023/07/24 01:44:44;;;;;;;0.00;0.00;;;17.30;88.70;;;;;;5012009;28;20132;-71
2023/07/24 01:47:10;;;;;;;0.00;0.00;;;17.40;88.50;;;;;;4993670;28;20053;-71
2023/07/24 01:49:36;;;;;;;0.00;0.00;;;17.40;88.90;;;;;;5011680;28;20648;-70
2023/07/24 01:52:01;;;;;;;0.00;0.00;;;17.40;88.80;;;;;;5011445;28;20050;-70
2023/07/24 01:54:27;;;;;;;0.40;0.40;;;17.40;88.60;;;;;;5011766;28;20072;-70
2023/07/24 01:56:53;;;;;;;0.60;0.60;;;17.40;88.70;;;;;;5011321;28;20577;-70
2023/07/24 01:59:18;;;;;;;0.00;0.00;;;17.40;88.50;;;;;;5011904;28;20092;-71
2023/07/24 02:01:44;;;;;;;0.10;0.10;;;17.50;88.40;;;;;;5011325;28;20057;-70
2023/07/24 02:04:09;;;;;;;0.10;0.10;;;17.50;88.40;;;;;;5010609;28;20050;-71
2023/07/24 02:06:35;;;;;;;0.00;0.00;;;17.40;88.50;;;;;;5010996;28;20034;-70
2023/07/24 02:09:00;;;;;;;1.35;0.35;;;17.40;88.40;;;;;;5011029;28;20553;-71
2023/07/24 02:11:26;;;;;;;0.00;0.00;;;17.50;88.20;;;;;;5011675;28;20525;-71
2023/07/24 02:13:51;;;;;;;0.00;0.00;;;17.50;88.20;;;;;;5010958;28;20052;-71
2023/07/24 02:16:17;;;;;;;0.00;0.00;;;17.50;88.20;;;;;;5010907;28;20096;-71
2023/07/24 02:18:43;;;;;;;0.00;0.00;;;17.50;88.20;;;;;;5011211;28;20098;-70
2023/07/24 02:21:09;;;;;;;0.00;0.00;;;17.50;88.10;;;;;;5010972;28;20066;-70
2023/07/24 02:23:35;;;;;;;0.10;0.10;;;17.50;88.30;;;;;;5009905;28;20462;-71
2023/07/24 02:26:01;;;;;;;0.00;0.00;;;17.50;88.30;;;;;;5010931;28;20081;-70
2023/07/24 02:28:27;;;;;;;0.05;0.05;;;17.50;88.40;;;;;;5011045;28;20100;-71
2023/07/24 02:30:55;;;;;;;0.00;0.00;;;17.50;88.40;;;;;;5011126;28;20046;-71
2023/07/24 02:33:22;;;;;;;0.43;0.17;;;17.50;88.20;;;;;;5010822;28;20049;-70
2023/07/24 02:35:52;;;;;;;0.35;0.35;;;17.50;88.40;;;;;;5009309;28;20054;-71
2023/07/24 02:38:17;;;;;;;0.15;0.15;;;17.50;88.50;;;;;;5010707;28;20045;-71
2023/07/24 02:40:44;;;;;;;0.00;0.00;;;17.50;88.50;;;;;;5010579;28;20066;-71
2023/07/24 02:43:10;;;;;;;0.00;0.00;;;17.50;88.40;;;;;;5010991;28;20060;-70
2023/07/24 02:45:37;;;;;;;0.00;0.00;;;17.50;88.20;;;;;;5010505;28;20050;-70
2023/07/24 02:48:03;;;;;;;0.00;0.00;;;17.60;87.90;;;;;;5010444;28;20042;-71
2023/07/24 02:50:29;;;;;;;0.00;0.00;;;17.60;87.90;;;;;;5010871;28;20042;-70
2023/07/24 02:52:55;;;;;;;0.00;0.00;;;17.60;88.20;;;;;;5010278;28;20046;-70
2023/07/24 02:55:20;;;;;;;0.10;0.10;;;17.60;88.30;;;;;;5010236;28;20494;-70
2023/07/24 02:57:46;;;;;;;0.00;0.00;;;17.60;88.40;;;;;;5008570;28;20553;-70
2023/07/24 03:00:12;;;;;;;0.00;0.00;;;17.60;88.30;;;;;;5011012;28;20038;-70
2023/07/24 03:02:38;;;;;;;0.00;0.00;;;17.60;88.30;;;;;;5010681;28;20041;-70
2023/07/24 03:05:04;;;;;;;0.20;0.20;;;17.60;88.30;;;;;;5010049;28;20415;-71
2023/07/24 03:07:29;;;;;;;0.00;0.00;;;17.60;88.40;;;;;;5009813;28;20050;-70
2023/07/24 03:09:55;;;;;;;0.13;0.13;;;17.60;88.40;;;;;;5010168;28;20042;-71
2023/07/24 03:12:21;;;;;;;0.00;0.00;;;17.60;88.40;;;;;;5010200;28;20520;-70
2023/07/24 03:14:47;;;;;;;0.00;0.00;;;17.60;88.60;;;;;;5010297;28;20038;-70
2023/07/24 03:17:13;;;;;;;0.00;0.00;;;17.60;88.50;;;;;;5010580;28;20045;-71
2023/07/24 03:19:40;;;;;;;0.00;0.00;;;17.70;88.40;;;;;;5010675;28;20050;-71
2023/07/24 03:22:05;;;;;;;0.00;0.00;;;17.70;88.40;;;;;;5010706;28;20038;-70
2023/07/24 03:24:31;;;;;;;0.17;0.17;;;17.60;88.50;;;;;;5009925;28;20107;-70
2023/07/24 03:26:57;;;;;;;0.00;0.00;;;17.70;88.40;;;;;;5008939;28;20053;-70
2023/07/24 03:29:22;;;;;;;0.15;0.15;;;17.70;88.40;;;;;;5009563;28;20041;-71
2023/07/24 03:31:48;;;;;;;0.00;0.00;;;17.70;88.50;;;;;;5010174;28;20041;-71
2023/07/24 03:34:13;;;;;;;0.10;0.10;;;17.70;88.50;;;;;;5008894;28;20042;-71
2023/07/24 03:36:41;;;;;;;0.00;0.00;;;17.70;88.50;;;;;;5009486;28;20077;-71
2023/07/24 03:39:07;;;;;;;0.75;0.75;;;17.70;88.50;;;;;;5009139;28;20057;-70
2023/07/24 03:41:32;;;;;;;0.00;0.00;;;17.70;88.70;;;;;;4990559;28;20039;-71
2023/07/24 03:43:58;;;;;;;0.05;0.05;;;17.70;88.60;;;;;;4989842;28;20054;-71
2023/07/24 03:46:24;;;;;;;0.03;0.03;;;17.70;88.60;;;;;;4990487;28;20518;-70
2023/07/24 03:48:50;;;;;;;0.00;0.00;;;17.70;88.40;;;;;;4999119;28;20109;-70
2023/07/24 03:51:16;;;;;;;0.08;0.08;;;17.70;88.40;;;;;;5008671;28;20050;-70
2023/07/24 03:53:41;;;;;;;0.00;0.00;;;17.70;88.30;;;;;;5009362;28;20065;-70
2023/07/24 03:56:08;;;;;;;0.00;0.00;;;17.80;88.20;;;;;;5009947;28;20060;-70
2023/07/24 03:58:34;;;;;;;0.20;0.20;;;17.80;88.40;;;;;;5007620;28;20053;-71
2023/07/24 04:00:59;;;;;;;0.15;0.15;;;17.70;88.40;;;;;;5009371;28;20054;-71
2023/07/24 04:03:25;;;;;;;0.00;0.00;;;17.80;88.40;;;;;;5008333;28;20479;-71
2023/07/24 04:05:50;;;;;;;0.50;0.47;;;17.80;88.50;;;;;;5009368;28;20037;-71
2023/07/24 04:08:16;;;;;;;0.15;0.15;;;17.80;88.40;;;;;;5008761;28;20461;-70
2023/07/24 04:10:41;;;;;;;0.00;0.00;;;17.80;88.40;;;;;;5009407;28;20495;-70
2023/07/24 04:13:07;;;;;;;0.00;0.00;;;17.80;88.40;;;;;;5009349;28;20060;-70
2023/07/24 04:15:33;;;;;;;0.00;0.00;;;17.80;88.40;;;;;;5008506;28;20096;-70
2023/07/24 04:17:58;;;;;;;0.00;0.00;;;17.80;88.40;;;;;;5008847;28;20042;-71
2023/07/24 04:20:24;;;;;;;0.00;0.00;;;17.90;88.40;;;;;;5007923;28;20053;-71
2023/07/24 04:22:49;;;;;;;0.00;0.00;;;17.80;88.40;;;;;;5008170;28;20045;-70
2023/07/24 04:25:15;;;;;;;0.10;0.10;;;17.80;88.40;;;;;;5009268;28;20052;-70
2023/07/24 04:27:41;;;;;;;0.00;0.00;;;17.80;88.30;;;;;;5007737;28;20046;-71
2023/07/24 04:30:07;;;;;;;0.00;0.00;;;17.80;88.40;;;;;;5008058;28;20046;-71
2023/07/24 04:32:35;;;;;;;0.00;0.00;;;17.90;88.30;;;;;;5008925;28;20049;-70
2023/07/24 04:35:01;;;;;;;0.00;0.00;;;17.80;88.20;;;;;;5008770;28;20552;-70
2023/07/24 04:37:27;;;;;;;0.00;0.00;;;17.80;88.40;;;;;;5007513;28;20056;-70
2023/07/24 04:39:52;;;;;;;0.00;0.00;;;17.90;88.40;;;;;;5009289;28;20062;-70
2023/07/24 04:42:18;;;;;;;0.00;0.00;;;17.90;88.20;;;;;;4991395;28;20100;-71
2023/07/24 04:44:43;;;;;;;0.30;0.30;;;17.90;88.20;;;;;;5008902;28;20086;-70
2023/07/24 04:47:09;;;;;;;0.00;0.00;;;17.90;88.30;;;;;;5011776;28;20089;-71
2023/07/24 04:49:34;;;;;;;0.00;0.00;;;17.90;88.30;;;;;;5013119;28;20045;-71
2023/07/24 04:52:00;;;;;;;0.03;0.03;;;17.90;88.20;;;;;;5012308;28;20053;-70
2023/07/24 04:54:26;;;;;;;0.22;0.22;;;17.90;88.20;;;;;;5012349;28;20096;-70
2023/07/24 04:56:51;;;;;;;0.00;0.00;;;17.90;88.10;;;;;;5012453;28;20060;-71
2023/07/24 04:59:17;;;;;;;0.20;0.20;;;17.90;88.20;;;;;;5012415;28;20056;-70
2023/07/24 05:01:42;;;;;;;1.23;0.65;;;17.90;88.20;;;;;;5012048;28;20052;-70
2023/07/24 05:04:08;;;;;;;0.00;0.00;;;17.90;88.30;;;;;;4994552;28;20080;-71
2023/07/24 05:06:35;;;;;;;0.00;0.00;;;18.00;88.30;;;;;;5012305;28;20710;-71
2023/07/24 05:09:01;;;;;;;0.15;0.15;;;17.90;88.10;;;;;;4995099;28;20414;-70
2023/07/24 05:11:27;;;;;;;0.00;0.00;;;18.00;88.10;;;;;;5011518;28;20128;-71
2023/07/24 05:13:52;;;;;;;0.00;0.00;;;17.90;88.10;;;;;;5014779;23;20506;-70
2023/07/24 05:16:18;;;;;;;0.10;0.10;;;18.00;88.20;;;;;;4970694;28;20054;-70
2023/07/24 05:18:43;;;;;;;0.15;0.15;;;17.90;88.20;;;;;;4969775;28;20423;-70
2023/07/24 05:21:09;;;;;;;0.00;0.00;;;18.00;88.20;;;;;;4972443;28;20062;-69
2023/07/24 05:23:34;;;;;;;0.00;0.00;;;17.90;88.20;;;;;;4972067;28;20097;-69
2023/07/24 05:26:01;;;;;;;0.03;0.03;;;17.90;88.20;;;;;;4971282;28;20507;-70
2023/07/24 05:28:28;;;;;;;0.00;0.00;;;17.90;88.20;;;;;;4972330;28;20051;-69
2023/07/24 05:30:53;;;;;;;0.00;0.00;;;17.90;88.20;;;;;;4972714;28;20051;-69
2023/07/24 05:33:19;;;;;;;0.00;0.00;;;17.90;88.20;;;;;;4972530;28;20050;-70
2023/07/24 05:35:44;;;;;;;0.00;0.00;;;17.90;88.30;;;;;;4971935;28;20063;-69
2023/07/24 05:38:10;;;;;;;0.00;0.00;;;17.90;88.30;;;;;;4971645;28;20039;-70
2023/07/24 05:40:36;;;;;;;0.00;0.00;;;18.00;88.30;;;;;;4972717;28;20062;-70
2023/07/24 05:43:01;;;;;;;0.00;0.00;;;17.90;88.50;;;;;;4971341;28;20043;-70
2023/07/24 05:45:27;;;;;;;0.00;0.00;;;17.80;88.50;;;;;;4971368;28;20557;-71
2023/07/24 05:47:53;;;;;;;0.00;0.00;;;17.90;88.60;;;;;;4972402;28;20050;-72
2023/07/24 05:50:19;;;;;;;0.00;0.00;;;17.90;88.50;;;;;;4971840;28;20066;-71
2023/07/24 05:52:45;;;;;;;0.00;0.00;;;18.00;88.40;;;;;;4971369;28;20082;-66
2023/07/24 05:55:11;;;;;;;0.00;0.00;;;18.00;88.50;;;;;;4972050;28;20046;-65
2023/07/24 05:57:36;;;;;;;0.00;0.00;;;18.00;88.60;;;;;;4970711;28;20090;-65
2023/07/24 06:00:03;;;;;;;0.08;0.08;;;18.00;88.40;;;;;;4971580;28;20035;-70
2023/07/24 06:02:29;;;;;;;3.83;0.55;;;18.10;88.40;;;;;;4971487;28;20633;-69
2023/07/24 06:04:55;;;;;;;0.00;0.00;;;18.10;88.30;;;;;;4971506;28;20094;-70
2023/07/24 06:07:20;;;;;;;0.00;0.00;;;18.10;88.10;;;;;;4971510;28;20059;-69
2023/07/24 06:09:46;;;;;;;0.00;0.00;;;18.10;88.00;;;;;;4971589;28;20034;-69
2023/07/24 06:12:11;;;;;;;0.00;0.00;;;18.20;88.00;;;;;;4970515;28;20130;-69
2023/07/24 06:14:37;;;;;;;0.00;0.00;;;18.20;87.80;;;;;;4971282;28;20141;-68
2023/07/24 06:17:04;;;;;;;0.00;0.00;;;18.30;87.80;;;;;;4970534;28;20062;-69
2023/07/24 06:19:29;;;;;;;0.00;0.00;;;18.30;87.70;;;;;;4971137;28;20043;-70
2023/07/24 06:21:55;;;;;;;0.10;0.10;;;18.40;87.60;;;;;;4971715;28;20101;-71
2023/07/24 06:24:20;;;;;;;0.00;0.00;;;18.40;87.50;;;;;;4971709;28;20102;-65
2023/07/24 06:26:46;;;;;;;0.10;0.10;;;18.30;87.50;;;;;;4971000;28;20050;-65
2023/07/24 06:29:12;;;;;;;0.00;0.00;;;18.30;87.40;;;;;;4971465;28;20517;-66
2023/07/24 06:31:37;;;;;;;0.03;0.03;;;18.30;87.60;;;;;;4970654;28;20055;-65
2023/07/24 06:34:03;;;;;;;0.00;0.00;;;18.30;87.60;;;;;;4971284;28;20042;-67
2023/07/24 06:36:28;;;;;;;0.00;0.00;;;18.30;87.60;;;;;;4971732;28;20062;-68
2023/07/24 06:38:54;;;;;;;0.00;0.00;;;18.30;87.60;;;;;;4971567;28;20042;-68
2023/07/24 06:41:23;;;;;;;0.00;0.00;;;18.30;87.60;;;;;;4970514;28;20063;-67
2023/07/24 06:43:49;;;;;;;0.00;0.00;;;18.30;87.50;;;;;;4971735;28;20090;-69
2023/07/24 06:46:15;;;;;;;0.20;0.20;;;18.40;87.70;;;;;;4970828;28;20049;-69
2023/07/24 06:48:40;;;;;;;0.00;0.00;;;18.30;87.60;;;;;;4970272;28;20054;-69
2023/07/24 06:51:06;;;;;;;0.10;0.10;;;18.40;87.50;;;;;;4971422;28;20089;-69
2023/07/24 06:53:31;;;;;;;0.00;0.00;;;18.40;87.50;;;;;;4972146;28;20049;-66
2023/07/24 06:55:57;;;;;;;0.00;0.00;;;18.50;87.40;;;;;;4971587;28;20419;-66
2023/07/24 06:58:22;;;;;;;0.00;0.00;;;18.50;87.40;;;;;;4971395;28;20461;-68
2023/07/24 07:00:48;;;;;;;0.00;0.00;;;18.60;87.30;;;;;;4971466;28;20504;-67
2023/07/24 07:03:13;;;;;;;0.00;0.00;;;18.50;87.40;;;;;;4969185;28;20043;-67
2023/07/24 07:05:39;;;;;;;0.00;0.00;;;18.60;87.40;;;;;;4970025;28;20062;-67
2023/07/24 07:08:05;;;;;;;0.10;0.10;;;18.60;87.20;;;;;;4970662;28;20050;-67
2023/07/24 07:10:31;;;;;;;0.10;0.10;;;18.60;87.10;;;;;;4969669;28;20423;-67
2023/07/24 07:12:56;;;;;;;0.10;0.10;;;18.60;87.20;;;;;;4970335;28;20057;-67
2023/07/24 07:15:22;;;;;;;0.00;0.00;;;18.70;87.30;;;;;;4968651;28;20497;-67
2023/07/24 07:17:49;;;;;;;0.00;0.00;;;18.80;87.10;;;;;;4970134;28;20574;-66
2023/07/24 07:20:15;;;;;;;0.00;0.00;;;18.80;87.00;;;;;;4970011;28;20133;-67
2023/07/24 07:22:41;;;;;;;1.55;1.33;;;18.80;86.90;;;;;;4970162;28;20133;-68
2023/07/24 07:25:06;;;;;;;0.00;0.00;;;18.90;86.80;;;;;;4969573;28;20046;-67
2023/07/24 07:27:32;;;;;;;0.00;0.00;;;18.90;86.50;;;;;;4970152;28;20077;-67
2023/07/24 07:29:57;;;;;;;0.10;0.10;;;18.90;86.40;;;;;;4969459;28;20078;-67
2023/07/24 07:32:23;;;;;;;0.20;0.20;;;18.90;86.30;;;;;;4969523;28;20119;-67
2023/07/24 07:34:49;;;;;;;0.00;0.00;;;18.90;86.30;;;;;;4970045;28;20039;-67
2023/07/24 07:37:14;;;;;;;0.55;0.43;;;18.80;86.20;;;;;;4970073;28;20134;-67
2023/07/24 07:39:40;;;;;;;0.00;0.00;;;18.90;86.60;;;;;;4969838;28;20047;-67
2023/07/24 07:42:05;;;;;;;0.00;0.00;;;18.80;86.50;;;;;;4968261;28;20062;-66
2023/07/24 07:44:31;;;;;;;1.35;1.00;;;18.90;86.50;;;;;;4969337;28;20038;-66
2023/07/24 07:46:56;;;;;;;0.00;0.00;;;18.90;86.50;;;;;;4969743;28;20082;-67
2023/07/24 07:49:22;;;;;;;0.00;0.00;;;18.90;86.50;;;;;;4969326;28;20055;-67
2023/07/24 07:51:47;;;;;;;0.00;0.00;;;19.00;86.40;;;;;;4969597;28;20419;-67
2023/07/24 07:54:13;;;;;;;0.00;0.00;;;19.00;86.40;;;;;;4968059;28;20087;-66
2023/07/24 07:56:39;;;;;;;0.00;0.00;;;19.10;86.30;;;;;;4968872;28;20059;-67
2023/07/24 07:59:04;;;;;;;0.00;0.00;;;19.10;86.20;;;;;;4968764;28;20131;-66
2023/07/24 08:01:30;;;;;;;0.00;0.00;;;19.10;86.00;;;;;;4969238;28;20077;-66
2023/07/24 08:03:56;;;;;;;0.10;0.10;;;19.10;85.80;;;;;;4968475;28;20046;-65
2023/07/24 08:06:22;;;;;;;0.10;0.10;;;19.20;85.70;;;;;;4969795;28;20101;-65
2023/07/24 08:08:47;;;;;;;0.00;0.00;;;19.30;85.70;;;;;;4970245;28;20035;-66
2023/07/24 08:11:13;;;;;;;0.00;0.00;;;19.40;85.70;;;;;;4970060;28;20047;-65
2023/07/24 08:13:38;;;;;;;0.10;0.10;;;19.50;85.20;;;;;;4968901;28;20055;-67
2023/07/24 08:16:05;;;;;;;0.00;0.00;;;19.50;85.30;;;;;;4969857;28;20166;-66
2023/07/24 08:18:30;;;;;;;0.00;0.00;;;19.60;85.10;;;;;;4950088;28;20145;-67
2023/07/24 08:20:56;;;;;;;0.00;0.00;;;19.60;85.00;;;;;;4951969;28;20066;-67
2023/07/24 08:23:21;;;;;;;0.03;0.03;;;19.70;84.90;;;;;;4954535;28;20172;-67
2023/07/24 08:25:56;;;;;;;0.05;0.05;;;19.70;84.40;;;;;;4954701;28;20094;-66
2023/07/24 08:28:22;;;;;;;0.00;0.00;;;19.80;84.30;;;;;;4955345;28;20047;-66
2023/07/24 08:30:57;;;;;;;0.20;0.20;;;19.90;84.20;;;;;;4953379;29;20053;-67
2023/07/24 08:33:23;;;;;;;0.00;0.00;;;19.90;83.70;;;;;;4937195;29;20055;-67
2023/07/24 08:35:59;;;;;;;0.25;0.25;;;20.00;83.70;;;;;;4954649;28;20439;-67
2023/07/24 08:38:24;;;;;;;0.00;0.00;;;20.00;83.60;;;;;;4954070;28;20043;-67
2023/07/24 08:41:00;;;;;;;0.00;0.00;;;20.10;83.70;;;;;;4972300;28;20073;-66
2023/07/24 08:43:26;;;;;;;0.10;0.10;;;20.10;83.10;;;;;;4973399;28;20118;-65
2023/07/24 08:45:52;;;;;;;0.00;0.00;;;20.20;82.90;;;;;;4973693;28;20049;-67
2023/07/24 08:48:20;;;;;;;0.35;0.35;;;20.30;83.00;;;;;;4971967;28;20407;-66
2023/07/24 08:50:47;;;;;;;0.00;0.00;;;20.40;82.80;;;;;;4973607;28;20049;-67
2023/07/24 08:53:13;;;;;;;0.00;0.00;;;20.40;82.60;;;;;;4973358;28;20042;-66
2023/07/24 08:55:39;;;;;;;0.00;0.00;;;20.50;82.60;;;;;;4973327;28;20039;-66
2023/07/24 08:58:06;;;;;;;0.00;0.00;;;20.50;82.80;;;;;;4972063;28;20047;-66
2023/07/24 09:00:32;;;;;;;0.38;0.28;;;20.70;82.00;;;;;;4973838;28;20046;-65
2023/07/24 09:02:58;;;;;;;0.00;0.00;;;20.80;82.10;;;;;;4973301;28;20043;-66
2023/07/24 09:05:23;;;;;;;0.30;0.30;;;20.80;81.90;;;;;;4972203;28;20142;-66
2023/07/24 09:07:49;;;;;;;0.30;0.30;;;20.90;80.70;;;;;;4972653;28;20073;-67
2023/07/24 09:10:15;;;;;;;0.43;0.43;;;20.90;80.10;;;;;;4976167;28;20426;-66
2023/07/24 09:12:42;;;;;;;0.00;0.00;;;20.70;79.50;;;;;;4972621;28;20045;-66
2023/07/24 09:15:08;;;;;;;0.30;0.30;;;20.70;80.30;;;;;;4971683;28;20062;-66
2023/07/24 09:17:34;;;;;;;0.20;0.20;;;20.80;80.40;;;;;;4972518;28;20046;-66
2023/07/24 09:20:01;;;;;;;0.00;0.00;;;20.80;79.80;;;;;;4972932;28;20046;-66
2023/07/24 09:22:27;;;;;;;0.30;0.30;;;21.00;79.90;;;;;;4972084;28;20543;-66
2023/07/24 09:24:55;;;;;;;0.00;0.00;;;21.10;80.30;;;;;;4971923;28;20097;-66
2023/07/24 09:27:23;;;;;;;3.63;1.55;;;21.20;79.80;;;;;;4972663;28;20130;-67
2023/07/24 09:29:50;;;;;;;0.40;0.40;;;21.20;78.50;;;;;;4970512;28;20043;-66
2023/07/24 09:32:20;;;;;;;0.00;0.00;;;21.30;78.80;;;;;;4970427;28;20093;-66
2023/07/24 09:34:47;;;;;;;0.00;0.00;;;21.30;78.60;;;;;;4971949;28;20097;-67
2023/07/24 09:37:26;;;;;;;4.28;2.00;;;21.00;79.40;;;;;;4972517;28;20134;-68
2023/07/24 09:39:51;;;;;;;0.35;0.35;;;20.80;80.40;;;;;;4961207;28;20130;-68
2023/07/24 09:42:17;;;;;;;1.30;1.20;;;20.40;81.30;;;;;;4972584;28;20137;-68
2023/07/24 09:44:42;;;;;;;0.00;0.00;;;20.00;82.80;;;;;;4971854;28;20038;-68
2023/07/24 09:47:08;;;;;;;0.00;0.00;;;19.90;83.00;;;;;;4970980;28;20054;-68
2023/07/24 09:49:34;;;;;;;0.00;0.00;;;19.70;83.80;;;;;;4970634;28;20049;-68
2023/07/24 09:52:03;;;;;;;0.00;0.00;;;19.50;84.10;;;;;;4971352;28;20039;-68
2023/07/24 09:54:38;;;;;;;0.15;0.15;;;19.40;85.00;;;;;;4971636;28;20522;-67
2023/07/24 09:57:04;;;;;;;2.55;0.43;;;19.30;85.60;;;;;;4972296;28;20055;-67
2023/07/24 09:59:30;;;;;;;0.10;0.10;;;19.30;85.60;;;;;;4971260;28;20054;-69
2023/07/24 10:01:56;;;;;;;0.10;0.10;;;19.10;85.80;;;;;;4971681;28;20058;-67
2023/07/24 10:04:24;;;;;;;0.30;0.30;;;19.00;86.30;;;;;;4971320;28;20126;-67
2023/07/24 10:06:50;;;;;;;0.13;0.13;;;18.90;86.80;;;;;;4971384;28;20045;-67
2023/07/24 10:09:19;;;;;;;0.00;0.00;;;18.90;86.70;;;;;;4968390;28;20129;-67
2023/07/24 10:11:45;;;;;;;0.00;0.00;;;18.80;87.30;;;;;;4971057;28;20062;-67
2023/07/24 10:14:11;;;;;;;0.00;0.00;;;18.90;87.90;;;;;;4969974;28;20059;-67
2023/07/24 10:16:37;;;;;;;0.00;0.00;;;19.00;88.50;;;;;;4970752;28;20059;-65
2023/07/24 10:19:13;;;;;;;0.00;0.00;;;19.20;88.90;;;;;;4970327;28;20061;-65
2023/07/24 10:21:46;;;;;;;0.00;0.00;;;19.30;88.50;;;;;;4970298;28;20055;-65
2023/07/24 10:24:11;;;;;;;0.10;0.10;;;19.30;88.30;;;;;;4970128;28;20110;-65
2023/07/24 10:26:37;;;;;;;0.00;0.00;;;19.30;88.20;;;;;;4970953;28;20065;-65
2023/07/24 10:29:02;;;;;;;0.10;0.10;;;19.30;88.00;;;;;;4971189;28;20039;-65
2023/07/24 10:31:29;;;;;;;0.05;0.05;;;19.40;88.10;;;;;;4971090;28;20047;-66
2023/07/24 10:33:56;;;;;;;0.00;0.00;;;19.50;87.70;;;;;;4971068;28;20098;-66
2023/07/24 10:36:24;;;;;;;1.17;0.85;;;19.50;87.30;;;;;;4970673;28;20051;-65
2023/07/24 10:38:55;;;;;;;0.10;0.10;;;19.60;86.90;;;;;;4970727;28;20053;-65
2023/07/24 10:41:21;;;;;;;;;;;19.80;86.80;;;;;;4971553;28;20086;-66
2023/07/24 10:43:49;;;;;;;0.20;0.20;;;20.00;86.60;;;;;;4970094;28;19922;-65
2023/07/24 10:46:16;;;;;;;0.00;0.00;;;20.10;85.80;;;;;;4969616;28;20137;-65
2023/07/24 10:48:43;;;;;;;0.10;0.10;;;20.30;85.00;;;;;;4969442;28;20050;-65
2023/07/24 10:51:10;;;;;;;0.08;0.08;;;20.40;84.80;;;;;;4964027;28;20527;-65
2023/07/24 10:53:37;;;;;;;0.32;0.32;;;20.50;83.60;;;;;;4967451;28;20161;-66
2023/07/24 10:56:04;;;;;;;0.20;0.20;;;20.50;83.90;;;;;;4969440;28;20141;-66
2023/07/24 10:58:29;;;;;;;0.00;0.00;;;20.50;82.80;;;;;;4971155;28;20042;-66
2023/07/24 11:00:56;;;;;;;0.08;0.08;;;20.50;82.30;;;;;;4970081;28;20499;-66
2023/07/24 11:03:21;;;;;;;0.30;0.30;;;20.20;82.00;;;;;;4969946;28;20093;-66
2023/07/24 11:05:47;;;;;;;0.03;0.03;;;20.10;83.10;;;;;;4969725;28;20495;-65
2023/07/24 11:08:15;;;;;;;0.00;0.00;;;20.00;84.10;;;;;;4970283;28;20045;-66
2023/07/24 11:10:52;;;;;;;0.00;0.00;;;19.90;84.20;;;;;;4970554;28;20050;-66
2023/07/24 11:13:20;;;;;;;0.00;0.00;;;19.90;83.70;;;;;;4970437;28;20506;-66
2023/07/24 11:15:48;;;;;;;0.00;0.00;;;19.90;83.20;;;;;;4970178;28;20069;-66
2023/07/24 11:18:13;;;;;;;0.00;0.00;;;19.90;83.40;;;;;;4970011;28;20055;-66
2023/07/24 11:20:51;;;;;;;0.00;0.00;;;19.90;83.10;;;;;;4969311;28;20057;-66
2023/07/24 11:23:17;;;;;;;0.10;0.10;;;19.90;82.20;;;;;;4966916;28;20562;-66
2023/07/24 11:25:43;;;;;;;0.00;0.00;;;20.10;82.80;;;;;;4970238;28;20055;-66
2023/07/24 11:28:11;;;;;;;0.47;0.47;;;20.20;82.50;;;;;;4969498;28;20031;-66
2023/07/24 11:30:37;;;;;;;0.00;0.00;;;20.30;82.20;;;;;;4969678;28;20112;-66
2023/07/24 11:33:05;;;;;;;0.00;0.00;;;20.10;80.50;;;;;;4967853;28;20047;-66
2023/07/24 11:35:31;;;;;;;0.00;0.00;;;20.10;81.10;;;;;;4968242;28;20419;-66
2023/07/24 11:37:56;;;;;;;0.00;0.00;;;19.90;80.50;;;;;;4969493;28;20042;-66
2023/07/24 11:40:31;;;;;;;0.00;0.00;;;19.80;81.10;;;;;;4968953;28;20055;-66
2023/07/24 11:42:57;;;;;;;0.10;0.10;;;19.80;80.70;;;;;;4969803;28;20053;-66
2023/07/24 11:45:23;;;;;;;0.00;0.00;;;19.90;80.30;;;;;;4969251;28;20043;-67
2023/07/24 11:47:50;;;;;;;0.00;0.00;;;19.80;80.50;;;;;;4969172;28;20464;-66
2023/07/24 11:50:17;;;;;;;0.32;0.32;;;19.80;78.60;;;;;;4967144;28;20376;-65
2023/07/24 11:52:48;;;;;;;0.00;0.00;;;19.60;78.30;;;;;;4969580;28;20039;-66
2023/07/24 11:55:18;;;;;;;0.00;0.00;;;19.70;78.70;;;;;;4967222;28;20047;-66
2023/07/24 11:57:56;;;;;;;0.00;0.00;;;19.90;79.00;;;;;;4969071;28;20496;-66
2023/07/24 12:00:22;;;;;;;0.00;0.00;;;20.00;78.60;;;;;;4969227;28;20496;-66
2023/07/24 12:02:48;;;;;;;0.00;0.00;;;20.10;77.90;;;;;;4969094;28;20058;-66
2023/07/24 12:05:14;;;;;;;0.00;0.00;;;20.30;77.50;;;;;;4968615;28;20046;-66
2023/07/24 12:07:42;;;;;;;0.00;0.00;;;20.40;76.30;;;;;;4969523;28;20444;-66
2023/07/24 12:10:07;;;;;;;0.38;0.38;;;20.50;77.10;;;;;;4967615;28;20058;-67
2023/07/24 12:12:48;;;;;;;0.00;0.00;;;20.50;77.00;;;;;;4969267;28;20058;-66
2023/07/24 12:15:14;;;;;;;1.65;0.85;;;20.50;75.60;;;;;;4969617;28;20194;-67
2023/07/24 12:17:40;;;;;;;0.00;0.00;;;20.60;75.80;;;;;;4969996;28;20126;-66
2023/07/24 12:20:09;;;;;;;0.00;0.00;;;20.70;75.40;;;;;;4967512;28;20045;-66
2023/07/24 12:22:35;;;;;;;0.00;0.00;;;20.80;75.30;;;;;;4969630;28;20492;-66
2023/07/24 12:25:06;;;;;;;0.00;0.00;;;20.60;75.40;;;;;;4968272;28;20074;-66
2023/07/24 12:27:32;;;;;;;0.00;0.00;;;20.60;76.60;;;;;;4968808;28;20078;-66
2023/07/24 12:29:58;;;;;;;0.00;0.00;;;20.50;76.20;;;;;;4969737;28;20047;-66
2023/07/24 12:32:24;;;;;;;0.00;0.00;;;20.40;76.30;;;;;;4969783;28;20039;-66
2023/07/24 12:34:51;;;;;;;0.00;0.00;;;20.30;76.00;;;;;;4964681;28;20085;-66
2023/07/24 12:37:17;;;;;;;0.00;0.00;;;20.30;76.70;;;;;;4968506;28;20105;-66
2023/07/24 12:39:45;;;;;;;0.00;0.00;;;20.30;77.20;;;;;;4968584;28;20061;-67
2023/07/24 12:42:10;;;;;;;0.00;0.00;;;20.10;77.40;;;;;;4968252;28;20546;-65
2023/07/24 12:44:36;;;;;;;0.00;0.00;;;20.10;78.10;;;;;;4962298;28;20044;-65